Tiempo atmosférico en la estación meteorológica de Padrón, A Coruña (100 m.)



Fecha
DESCASC
Temp. máxima en grados centígrados (hora)
DESCASC
Temp. mínima en grados centígrados (hora)
DESCASC
Temp. media en grados centígrados
DESCASC
Racha de viento máxima en m/sg (hora)
DESCASC
Velocidad máxima media en intervalos de 10 minutos(hora)
DESCASC
Precipitaciones diarias en mm
DESCASC
Precipitaciones de 00:00 a 06:00 en mm
DESCASC
Precipitaciones de 06:00 a 12:00 en mm
DESCASC
Precipitaciones de 12:00 a 18:00 en mm
DESCASC
Precipitaciones de 18:00 a 24:00 en mm
DESCASC
05-04-2020 16.2 (01:40) 12.1 (23:30) 14.2 10.56 (09:30) 4.72 (15:10) 29.4 0 7 22.4 0
04-04-2020 22.5 (15:40) 4.6 (08:40) 13.5 11.94 (16:00) 5.56 (06:10) 0 0 0 0 0
03-04-2020 20.7 (17:00) 3.5 (08:20) 12.1 8.61 (00:10) 5 (11:00) 0 0 0 0 0
02-04-2020 16.8 (16:00) 8.2 (00:00) 12.5 11.39 (14:10) 7.78 (14:10) 0 0 0 0 0
01-04-2020 18.3 (16:30) 4.7 (00:00) 11.5 8.06 (18:30) 4.44 (18:50) 1.2 0.5 0 0 0.7
31-03-2020 10.4 (12:10) 2.2 (00:00) 6.3 15.83 (13:10) 11.11 (13:10) 0.5 0 0 0 0.5
30-03-2020 12.2 (15:20) 4.5 (00:00) 8.3 20.28 (13:50) 13.33 (14:00) 0 0 0 0 0
29-03-2020 20.3 (17:10) 4.4 (00:00) 12.3 10.83 (20:50) 6.67 (13:20) 0 0 0 0 0
28-03-2020 20.2 (15:40) 1.9 (00:00) 11.1 6.39 (18:30) 5 (06:20) 0 0 0 0 0
27-03-2020 18.6 (16:30) 2.9 (00:00) 10.8 9.72 (11:30) 5.83 (11:20) 0 0 0 0 0
26-03-2020 19.2 (14:40) 5 (00:00) 12.1 9.72 (20:50) 6.11 (15:30) 0 0 0 0 0
25-03-2020 20.9 (15:00) 5.4 (00:00) 13.1 6.67 (07:00) 5.56 (06:50) 0 0 0 0 0
24-03-2020 22.6 (15:50) 6.4 (00:00) 14.5 7.22 (15:00) 3.61 (05:30) 0 0 0 0 0
23-03-2020 18.5 (15:30) 8.2 (00:00) 13.3 9.17 (12:10) 6.39 (11:20) 0 0 0 0 0
22-03-2020 17.8 (17:20) 9.9 (07:30) 13.8 8.06 (22:10) 5 (11:20) 0.1 0 0 0.1 0
21-03-2020 16.2 (15:30) 10 (00:00) 13.1 6.11 (09:50) 4.72 (09:50) 3.7 1.2 0.1 0 2.4
20-03-2020 14.3 (14:50) 10.9 (00:00) 12.6 5 (01:40) 2.5 (01:40) 5.1 1.9 0.7 1.6 0.9
19-03-2020 20.1 (14:10) 7.2 (00:00) 13.7 6.39 (23:10) 4.17 (08:10) 0.1 0 0 0 0.1
18-03-2020 23.4 (17:20) 4.7 (00:00) 14 6.67 (09:10) 5.28 (08:30) 0 0 0 0 0
17-03-2020 20.1 (16:40) 6 (00:00) 13.1 10.28 (07:30) 6.94 (10:30) 0 0 0 0 0
16-03-2020 13.9 (15:20) 2.1 (00:00) 8 12.5 (12:40) 6.11 (14:50) 1.5 0.2 1.1 0.2 0
15-03-2020 11.7 (10:40) 3.2 (00:00) 7.4 8.33 (12:20) 3.89 (06:00) 12.5 0 5.2 6.3 1
14-03-2020 19.2 (16:30) 2.6 (00:00) 10.9 9.44 (12:20) 6.67 (12:20) 0 0 0 0 0
13-03-2020 16 (15:20) 7 (23:59) 11.5 13.33 (03:30) 7.22 (03:30) 0 0 0 0 0
12-03-2020 15.6 (13:00) 7 (00:00) 11.3 11.67 (15:50) 5.83 (13:10) 0 0 0 0 0
11-03-2020 20 (15:50) 9.6 (00:00) 14.8 4.72 (18:30) 2.78 (08:40) 0 0 0 0 0
10-03-2020 15.7 (14:30) 6.1 (00:00) 10.9 5.28 (12:00) 2.78 (07:50) 0 0 0 0 0
09-03-2020 16 (16:00) 3.4 (00:00) 9.7 5 (09:10) 3.33 (07:00) 0 0 0 0 0

Gráficas

Temp. máximas Temp. mínimas Temp. medias Precipitaciones Rachas de viento máximas Velocidades máximas media en intervalos de 10 minutos

Datos horarios

Fecha y hora oficial Temperatura (ºC) Velocidad del viento (km/h) Dirección del viento Racha (km/h) Dirección de racha Precipitación (mm) Presión (hPa) Tendencia (hPa) Humedad (%)
2020-04-07 23:00:00 13.9 0 Calma 6 Noroeste 0 -- -- 88
2020-04-07 22:00:00 14.1 0 Calma 9 Oeste 0 -- -- 85
2020-04-07 21:00:00 15.1 2 Oeste 11 Oeste 0 -- -- 82
2020-04-07 20:00:00 16.3 4 Oeste 18 Oeste 0 -- -- 76
2020-04-07 19:00:00 17.6 6 Oeste 17 Oeste 0 -- -- 73
2020-04-07 18:00:00 18.4 6 Oeste 23 Oeste 0 -- -- 73
2020-04-07 17:00:00 17.3 6 Oeste 21 Oeste 0 -- -- 80
2020-04-07 16:00:00 17.9 8 Oeste 21 Sudoeste 0 -- -- 78
2020-04-07 15:00:00 18.1 4 Oeste 13 Oeste 0 -- -- 80
2020-04-07 14:00:00 16.9 3 Noroeste 11 Oeste 0 -- -- 87
2020-04-07 13:00:00 15.2 3 Este 10 Nordeste 0.2 -- -- 93
2020-04-07 12:00:00 13.4 2 Nordeste 12 Este 0.8 -- -- 93
2020-04-07 11:00:00 12.4 6 Este 12 Este 1.4 -- -- 93
2020-04-07 10:00:00 12.6 3 Nordeste 9 Nordeste 0 -- -- 93
2020-04-07 09:00:00 11.1 6 Este 12 Este 0 -- -- 93
2020-04-07 08:00:00 11 6 Este 13 Nordeste 0.3 -- -- 92
2020-04-07 07:00:00 11.1 2 Este 14 Este 0 -- -- 91
2020-04-07 06:00:00 11.2 9 Este 18 Este 0 -- -- 91
2020-04-07 05:00:00 11.2 8 Este 18 Este 0 -- -- 91
2020-04-07 04:00:00 11.3 7 Este 15 Nordeste 0 -- -- 91
2020-04-07 03:00:00 11.4 6 Este 12 Nordeste 0 -- -- 91
2020-04-07 02:00:00 11.6 2 Este 12 Este 0 -- -- 91
2020-04-07 01:00:00 11.5 5 Este 15 Este 0 -- -- 91
2020-04-07 00:00:00 11.8 9 Este 14 Este 0 -- -- 89
2020-04-06 23:00:00 12.3 9 Este 15 Sudeste 0 -- -- 88
2020-04-06 22:00:00 12.9 8 Este 14 Este 0 -- -- 86
2020-04-06 21:00:00 13.6 6 Este 9 Este 0 -- -- 80
2020-04-06 20:00:00 14.5 5 Este 13 Este 0 -- -- 75
2020-04-06 19:00:00 14.2 10 Este 18 Este 0 -- -- 74
2020-04-06 18:00:00 14.5 14 Este 23 Este 0 -- -- 71
2020-04-06 17:00:00 15.3 13 Este 19 Este 0 -- -- 63
2020-04-06 16:00:00 16.2 4 Este 11 Sudeste 0 -- -- 60
2020-04-06 15:00:00 15.3 0 Calma 6 Sudoeste 0 -- -- 64
2020-04-06 14:00:00 15 3 Este 10 Este 0 -- -- 72
2020-04-06 13:00:00 14.2 4 Este 14 Este 0 -- -- 83
2020-04-06 12:00:00 12.6 8 Este 16 Este 0 -- -- 94
2020-04-06 11:00:00 10.7 10 Este 19 Este 0 -- -- 95
2020-04-06 10:00:00 10 12 Este 18 Este 0 -- -- 95
2020-04-06 09:00:00 9.2 7 Este 13 Nordeste 0 -- -- 94
2020-04-06 08:00:00 9.4 8 Este 11 Este 0.1 -- -- 94
2020-04-06 07:00:00 9.8 3 Este 5 Este 0 -- -- 94
2020-04-06 06:00:00 10 0 Calma 8 Nordeste 0 -- -- 94
2020-04-06 05:00:00 10.2 0 Calma 3 Norte 0 -- -- 93
2020-04-06 04:00:00 10.3 0 Calma 6 Nordeste 0 -- -- 93
2020-04-06 03:00:00 10.9 0 Calma 3 Este 0 -- -- 93
2020-04-06 02:00:00 10.9 0 Calma 3 Oeste 0 -- -- 93
2020-04-06 01:00:00 11.9 0 Calma 5 Oeste 0 -- -- 93
2020-04-06 00:00:00 12.2 0 Calma 7 Oeste 0 -- -- 93
2020-04-05 23:00:00 12.2 3 Oeste 8 Oeste 0 -- -- 92
2020-04-05 22:00:00 12.7 4 Oeste 15 Oeste 0 -- -- 92
2020-04-05 21:00:00 13 6 Oeste 27 Oeste 0 -- -- 89
2020-04-05 20:00:00 13.6 6 Oeste 24 Oeste 0 -- -- 86
2020-04-05 19:00:00 15.3 10 Oeste 29 Oeste 0 -- -- 85
2020-04-05 18:00:00 15.1 16 Oeste 34 Oeste 0 -- -- 91
2020-04-05 17:00:00 14.7 15 Oeste 35 Oeste 0 -- -- 94
2020-04-05 16:00:00 13.8 12 Oeste 36 Sudoeste 1.2 -- -- 94
2020-04-05 15:00:00 13.8 15 Oeste 32 Sur 7.4 -- -- 94
2020-04-05 14:00:00 13.9 11 Sudoeste 32 Sudoeste 5.1 -- -- 93
2020-04-05 13:00:00 14 10 Sudoeste 36 Sudoeste 8.7 -- -- 93
2020-04-05 12:00:00 14.1 8 Sudoeste 25 Sudoeste 0.4 -- -- 92
2020-04-05 11:00:00 14 11 Sudoeste 28 Sudoeste 1.2 -- -- 92
2020-04-05 10:00:00 13.1 9 Oeste 38 Sudoeste 3.3 -- -- 92
2020-04-05 09:00:00 13.2 10 Sudoeste 28 Sudoeste 2 -- -- 89
2020-04-05 08:00:00 14.3 12 Sudoeste 33 Sudoeste 0 -- -- 75
2020-04-05 07:00:00 13.8 10 Sudoeste 32 Sur 0.1 -- -- 77
2020-04-05 06:00:00 14.2 10 Sudoeste 27 Sur 0 -- -- 70
2020-04-05 05:00:00 14.3 5 Sudoeste 35 Oeste 0 -- -- 69
2020-04-05 04:00:00 15.8 10 Sudoeste 31 Sudoeste 0 -- -- 55
2020-04-05 03:00:00 15.7 7 Sudoeste 26 Sudoeste 0 -- -- 55
2020-04-05 02:00:00 15.9 10 Sudoeste 28 Sur 0 -- -- 52
2020-04-05 01:00:00 15.9 11 Sudoeste 28 Sudoeste 0 -- -- 52
2020-04-05 00:00:00 15.7 4 Sudoeste 21 Sudoeste 0 -- -- 53
2020-04-04 23:00:00 15.2 0 Calma 9 Sudoeste 0 -- -- 55
2020-04-04 22:00:00 15.1 3 Sudeste 11 Sudoeste 0 -- -- 55
2020-04-04 21:00:00 15.2 4 Sudoeste 13 Sudoeste 0 -- -- 55
2020-04-04 20:00:00 15.8 8 Oeste 18 Noroeste 0 -- -- 54
2020-04-04 19:00:00 16.4 6 Noroeste 23 Oeste 0 -- -- 52
2020-04-04 18:00:00 17.9 8 Oeste 29 Oeste 0 -- -- 47
2020-04-04 17:00:00 19.8 13 Oeste 39 Sudoeste 0 -- -- 36
2020-04-04 16:00:00 21.8 15 Sudoeste 43 Sur 0 -- -- 32
2020-04-04 15:00:00 20.5 5 Oeste 19 Sur 0 -- -- 37
2020-04-04 14:00:00 19.2 7 Oeste 28 Oeste 0 -- -- 39
2020-04-04 13:00:00 20.4 12 Oeste 33 Sudoeste 0 -- -- 40
2020-04-04 12:00:00 18.3 4 Este 14 Este 0 -- -- 49
2020-04-04 11:00:00 14.4 9 Este 17 Nordeste 0 -- -- 67
2020-04-04 10:00:00 9.4 13 Nordeste 22 Nordeste 0 -- -- 86
2020-04-04 09:00:00 5.4 16 Nordeste 23 Nordeste 0 -- -- 95
2020-04-04 08:00:00 5.2 18 Nordeste 23 Nordeste 0 -- -- 95
2020-04-04 07:00:00 5.7 17 Nordeste 25 Nordeste 0 -- -- 95
2020-04-04 06:00:00 5.8 19 Nordeste 24 Nordeste 0 -- -- 94
2020-04-04 05:00:00 6.5 18 Nordeste 22 Nordeste 0 -- -- 93
2020-04-04 04:00:00 6.5 14 Este 19 Este 0 -- -- 91
2020-04-04 03:00:00 7.9 10 Nordeste 17 Este 0 -- -- 88
2020-04-04 02:00:00 8.6 10 Nordeste 21 Nordeste 0 -- -- 83
2020-04-04 01:00:00 9.7 9 Nordeste 16 Este 0 -- -- 79
2020-04-04 00:00:00 9.8 11 Nordeste 14 Nordeste 0 -- -- 75
2020-04-03 23:00:00 11.1 5 Nordeste 9 Nordeste 0 -- -- 66
2020-04-03 22:00:00 13 0 Calma 7 Este 0 -- -- 54
2020-04-03 21:00:00 14 0 Calma 9 Oeste 0 -- -- 50
2020-04-03 20:00:00 16.6 3 Oeste 14 Sudoeste 0 -- -- 47
2020-04-03 19:00:00 18 6 Oeste 20 Oeste 0 -- -- 47
2020-04-03 18:00:00 20.1 7 Oeste 21 Sudoeste 0 -- -- 45
2020-04-03 17:00:00 20.7 7 Oeste 20 Oeste 0 -- -- 45
2020-04-03 16:00:00 20.1 5 Oeste 18 Oeste 0 -- -- 46
2020-04-03 15:00:00 19.7 4 Oeste 13 Oeste 0 -- -- 49
2020-04-03 14:00:00 18.1 4 Noroeste 12 Oeste 0 -- -- 51
2020-04-03 13:00:00 16.2 5 Oeste 13 Sudeste 0 -- -- 55
2020-04-03 12:00:00 13.4 9 Este 22 Este 0 -- -- 61
2020-04-03 11:00:00 10.4 18 Este 23 Este 0 -- -- 70
2020-04-03 10:00:00 8 13 Este 19 Este 0 -- -- 85
2020-04-03 09:00:00 3.6 13 Este 19 Este 0 -- -- 94
2020-04-03 08:00:00 3.7 10 Nordeste 16 Nordeste 0 -- -- 92
2020-04-03 07:00:00 4.2 8 Nordeste 15 Nordeste 0 -- -- 91
2020-04-03 06:00:00 4.9 6 Nordeste 16 Este 0 -- -- 89
2020-04-03 05:00:00 5.7 2 Nordeste 14 Este 0 -- -- 86
2020-04-03 04:00:00 6.2 5 Este 22 Este 0 -- -- 83
2020-04-03 03:00:00 6.5 12 Este 28 Este 0 -- -- 80
2020-04-03 02:00:00 7.1 14 Este 26 Este 0 -- -- 77
2020-04-03 01:00:00 8.1 10 Este 31 Este 0 -- -- 74
2020-04-03 00:00:00 8.5 16 Este 29 Este 0 -- -- 75
2020-04-02 23:00:00 8.8 8 Este 22 Este 0 -- -- 73
2020-04-02 22:00:00 10 11 Nordeste 28 Nordeste 0 -- -- 70
2020-04-02 21:00:00 11.2 13 Nordeste 28 Nordeste 0 -- -- 64
2020-04-02 20:00:00 13.3 14 Nordeste 28 Este 0 -- -- 58
2020-04-02 19:00:00 14.9 11 Nordeste 28 Este 0 -- -- 54
2020-04-02 18:00:00 16.4 12 Este 29 Este 0 -- -- 51
2020-04-02 17:00:00 16.3 15 Este 32 Este 0 -- -- 52
2020-04-02 16:00:00 16 15 Este 39 Este 0 -- -- 54
2020-04-02 15:00:00 16 22 Este 41 Este 0 -- -- 55
2020-04-02 14:00:00 15.7 20 Este 39 Este 0 -- -- 60
2020-04-02 13:00:00 15.5 18 Este 33 Este 0 -- -- 61
2020-04-02 12:00:00 13.8 16 Este 40 Este 0 -- -- 67
2020-04-02 11:00:00 13.1 19 Este 35 Este 0 -- -- 70
2020-04-02 10:00:00 10.7 10 Este 32 Este 0 -- -- 83
2020-04-02 09:00:00 9.9 8 Este 26 Nordeste 0 -- -- 87
2020-04-02 08:00:00 9.2 8 Este 21 Este 0 -- -- 89
2020-04-02 07:00:00 9.6 4 Nordeste 19 Este 0 -- -- 89
2020-04-02 06:00:00 9.5 5 Este 19 Este 0 -- -- 89
2020-04-02 05:00:00 9.3 8 Este 23 Este 0 -- -- 89
2020-04-02 04:00:00 9 4 Este 17 Este 0 -- -- 90
2020-04-02 03:00:00 9.4 5 Este 15 Nordeste 0 -- -- 91
2020-04-02 02:00:00 9.6 2 Nordeste 13 Este 0 -- -- 91
2020-04-02 01:00:00 9.7 3 Este 14 Este 0 -- -- 91
2020-04-02 00:00:00 9.4 4 Nordeste 11 Nordeste 0 -- -- 91
2020-04-01 23:00:00 9.7 6 Este 15 Este 0 -- -- 90
2020-04-01 22:00:00 10 4 Este 13 Este 0.4 -- -- 89
2020-04-01 21:00:00 10.5 12 Este 16 Este 0.1 -- -- 85
2020-04-01 20:00:00 12.1 4 Este 20 Este 0.2 -- -- 77
2020-04-01 19:00:00 13.9 11 Este 29 Nordeste 0 -- -- 55
2020-04-01 18:00:00 15.8 10 Nordeste 24 Nordeste 0 -- -- 51
2020-04-01 17:00:00 16.8 6 Nordeste 24 Este 0 -- -- 47
2020-04-01 16:00:00 16.1 3 Nordeste 13 Oeste 0 -- -- 44
2020-04-01 15:00:00 16.2 0 Calma 12 Sudeste 0 -- -- 49
2020-04-01 14:00:00 14.6 2 Norte 9 Este 0 -- -- 55
2020-04-01 13:00:00 13.3 0 Calma 12 Sudeste 0 -- -- 59
2020-04-01 12:00:00 12.4 7 Este 14 Este 0 -- -- 66
2020-04-01 11:00:00 10 8 Este 13 Nordeste 0 -- -- 93
2020-04-01 10:00:00 6.2 8 Nordeste 14 Nordeste 0 -- -- 96
2020-04-01 09:00:00 4.9 8 Nordeste 11 Este 0 -- -- 94
2020-04-01 08:00:00 5.6 8 Nordeste 10 Nordeste 0 -- -- 93
2020-04-01 07:00:00 6.2 3 Este 8 Nordeste 0 -- -- 93
2020-04-01 06:00:00 6.5 3 Nordeste 9 Este 0 -- -- 93
2020-04-01 05:00:00 6.6 4 Nordeste 8 Este 0 -- -- 93
2020-04-01 04:00:00 6.5 2 Norte 8 Oeste 0 -- -- 93
2020-04-01 03:00:00 6.6 0 Calma 11 Este 0.5 -- -- 91
2020-04-01 02:00:00 6.9 3 Este 12 Este 0 -- -- 85
2020-04-01 01:00:00 7.3 8 Este 21 Este 0 -- -- 85
2020-04-01 00:00:00 7.1 5 Este 19 Nordeste 0 -- -- 86
2020-03-31 23:00:00 7.4 8 Este 25 Este 0 -- -- 87
2020-03-31 22:00:00 7.1 7 Este 23 Este 0.2 -- -- 88
2020-03-31 21:00:00 7.6 9 Este 19 Este 0.3 -- -- 80
2020-03-31 20:00:00 8.4 8 Nordeste 26 Este 0 -- -- 73
2020-03-31 19:00:00 9 14 Este 32 Este 0 -- -- 64
2020-03-31 18:00:00 9.6 8 Este 23 Este 0 -- -- 64
2020-03-31 17:00:00 8.6 17 Este 27 Este 0 -- -- 64
2020-03-31 16:00:00 8.7 18 Este 40 Este 0 -- -- 63
2020-03-31 15:00:00 9 5 Este 23 Este 0 -- -- 64
2020-03-31 14:00:00 6.3 14 Este 57 Este 0 -- -- 70
2020-03-31 13:00:00 7.5 33 Este 54 Este 0 -- -- 54
2020-03-31 12:00:00 9 22 Este 39 Este 0 -- -- 58
2020-03-31 11:00:00 6.6 12 Este 23 Este 0 -- -- 69
2020-03-31 10:00:00 5.1 12 Este 25 Este 0 -- -- 77
2020-03-31 09:00:00 2.7 7 Este 20 Este 0 -- -- 80
2020-03-31 08:00:00 2.4 5 Este 27 Este 0 -- -- 77
2020-03-31 07:00:00 3.2 9 Este 29 Este 0 -- -- 74
2020-03-31 06:00:00 3.5 10 Este 28 Este 0 -- -- 73
2020-03-31 05:00:00 3.5 7 Este 22 Este 0 -- -- 73
2020-03-31 04:00:00 3.8 8 Este 24 Este 0 -- -- 70
2020-03-31 03:00:00 4.2 10 Este 32 Este 0 -- -- 68
2020-03-31 02:00:00 4.9 16 Este 35 Este 0 -- -- 67
2020-03-31 01:00:00 4.7 12 Este 31 Este 0 -- -- 67
2020-03-31 00:00:00 4.8 17 Este 35 Este 0 -- -- 64
2020-03-30 23:00:00 4.9 12 Este 34 Este 0 -- -- 59
2020-03-30 22:00:00 5.5 12 Este 39 Este 0 -- -- 53
2020-03-30 21:00:00 6.3 16 Este 48 Nordeste 0 -- -- 52
2020-03-30 20:00:00 8 22 Este 57 Este 0 -- -- 45
2020-03-30 19:00:00 8.9 28 Este 56 Este 0 -- -- 45
2020-03-30 18:00:00 10 42 Este 59 Este 0 -- -- 41
2020-03-30 17:00:00 11 32 Este 61 Nordeste 0 -- -- 42
2020-03-30 16:00:00 11.4 32 Este 64 Este 0 -- -- 44
2020-03-30 15:00:00 11.5 37 Este 63 Este 0 -- -- 42
2020-03-30 14:00:00 10.2 48 Este 73 Este 0 -- -- 46
2020-03-30 13:00:00 11.1 30 Este 69 Este 0 -- -- 47
2020-03-30 12:00:00 11 35 Este 68 Este 0 -- -- 50
2020-03-30 11:00:00 9.6 32 Este 58 Nordeste 0 -- -- 52
2020-03-30 10:00:00 7.9 29 Este 49 Este 0 -- -- 61
2020-03-30 09:00:00 6.8 26 Este 41 Este 0 -- -- 62
2020-03-30 08:00:00 6.7 17 Este 38 Este 0 -- -- 59
2020-03-30 07:00:00 7.2 26 Este 54 Este 0 -- -- 61
2020-03-30 06:00:00 7.3 26 Este 47 Este 0 -- -- 66
2020-03-30 05:00:00 7.3 17 Este 36 Este 0 -- -- 68
2020-03-30 04:00:00 7.4 19 Este 33 Este 0 -- -- 69
2020-03-30 03:00:00 7.8 15 Este 36 Este 0 -- -- 69
2020-03-30 02:00:00 8.6 16 Este 44 Este 0 -- -- 68
2020-03-30 01:00:00 9.5 19 Este 39 Este 0 -- -- 68
2020-03-30 00:00:00 9.5 17 Este 33 Nordeste 0 -- -- 68
2020-03-29 23:00:00 10.1 14 Este 29 Este 0 -- -- 61
2020-03-29 22:00:00 10.7 12 Este 35 Este 0 -- -- 55
2020-03-29 21:00:00 12.1 17 Este 39 Este 0 -- -- 49
2020-03-29 20:00:00 14.4 18 Este 37 Este 0 -- -- 47
2020-03-29 19:00:00 16.4 17 Este 33 Este 0 -- -- 43
2020-03-29 18:00:00 19.3 9 Este 29 Este 0 -- -- 40
2020-03-29 17:00:00 20 11 Este 28 Este 0 -- -- 39
2020-03-29 16:00:00 18.5 16 Sudeste 26 Este 0 -- -- 41
2020-03-29 15:00:00 18.3 16 Este 27 Este 0 -- -- 40
2020-03-29 14:00:00 16.9 21 Este 34 Este 0 -- -- 45
2020-03-29 13:00:00 15.5 21 Este 31 Este 0 -- -- 51
2020-03-29 12:00:00 13.8 19 Este 29 Este 0 -- -- 61
2020-03-29 11:00:00 10.8 12 Este 19 Este 0 -- -- 73
2020-03-29 10:00:00 5.6 5 Nordeste 16 Nordeste 0 -- -- 91
2020-03-29 09:00:00 4.8 4 Nordeste 11 Nordeste 0 -- -- 91
2020-03-29 08:00:00 4.7 0 Calma 8 Nordeste 0 -- -- 90
2020-03-29 07:00:00 4.9 4 Nordeste 10 Nordeste 0 -- -- 89
2020-03-29 06:00:00 5.3 4 Nordeste 12 Nordeste 0 -- -- 87
2020-03-29 05:00:00 6.3 6 Este 18 Este 0 -- -- 83
2020-03-29 03:00:00 7.2 9 Este 24 Este 0 -- -- 77
2020-03-29 01:00:00 7.3 11 Este 21 Este 0 -- -- 75
2020-03-29 00:00:00 7.7 10 Este 19 Este 0 -- -- 72
2020-03-28 23:00:00 9.2 7 Este 14 Este 0 -- -- 63
2020-03-28 22:00:00 9.8 5 Este 14 Este 0 -- -- 56
2020-03-28 21:00:00 11.2 2 Nordeste 9 Norte 0 -- -- 49
2020-03-28 20:00:00 13 3 Nordeste 15 Norte 0 -- -- 46
2020-03-28 19:00:00 15 5 Norte 23 Norte 0 -- -- 42
2020-03-28 18:00:00 17.7 2 Noroeste 17 Oeste 0 -- -- 38
2020-03-28 17:00:00 19.2 2 Oeste 12 Oeste 0 -- -- 33
2020-03-28 16:00:00 19.2 0 Calma 10 Oeste 0 -- -- 32
2020-03-28 15:00:00 19.4 4 Oeste 13 Oeste 0 -- -- 34
2020-03-28 14:00:00 18.4 4 Oeste 12 Oeste 0 -- -- 37
2020-03-28 13:00:00 17.1 4 Oeste 12 Oeste 0 -- -- 38
2020-03-28 12:00:00 15.1 2 Sur 16 Este 0 -- -- 44
2020-03-28 11:00:00 11.8 14 Este 22 Este 0 -- -- 54
2020-03-28 10:00:00 8.6 13 Este 21 Este 0 -- -- 76
2020-03-28 09:00:00 3.4 15 Este 21 Este 0 -- -- 94
2020-03-28 08:00:00 2.1 17 Nordeste 21 Este 0 -- -- 94
2020-03-28 07:00:00 2.4 16 Nordeste 22 Este 0 -- -- 94
2020-03-28 06:00:00 2.6 17 Nordeste 21 Nordeste 0 -- -- 94
2020-03-28 05:00:00 2.9 17 Nordeste 21 Nordeste 0 -- -- 93
2020-03-28 04:00:00 3.9 11 Nordeste 17 Este 0 -- -- 91
2020-03-28 03:00:00 4.3 5 Nordeste 17 Nordeste 0 -- -- 91
2020-03-28 02:00:00 4.5 8 Nordeste 17 Nordeste 0 -- -- 87
2020-03-28 01:00:00 5.2 8 Nordeste 13 Nordeste 0 -- -- 86
2020-03-28 00:00:00 5.6 6 Nordeste 15 Nordeste 0 -- -- 83
2020-03-27 23:00:00 7 9 Nordeste 17 Nordeste 0 -- -- 78
2020-03-27 22:00:00 9 0 Calma 4 Sudoeste 0 -- -- 68
2020-03-27 21:00:00 9.6 0 Calma 7 Sudoeste 0 -- -- 64
2020-03-27 20:00:00 11.3 0 Calma 14 Nordeste 0 -- -- 57
2020-03-27 19:00:00 13.7 4 Noroeste 15 Noroeste 0 -- -- 47
2020-03-27 18:00:00 16 4 Noroeste 14 Norte 0 -- -- 41
2020-03-27 17:00:00 17.5 5 Oeste 20 Oeste 0 -- -- 38
2020-03-27 16:00:00 17.9 3 Sur 24 Este 0 -- -- 29
2020-03-27 15:00:00 17.1 6 Sudeste 22 Este 0 -- -- 31
2020-03-27 14:00:00 16.2 9 Nordeste 21 Este 0 -- -- 39
2020-03-27 13:00:00 14.8 7 Este 31 Este 0 -- -- 44
2020-03-27 12:00:00 13.1 17 Este 35 Este 0 -- -- 49
2020-03-27 11:00:00 11.4 18 Este 30 Este 0 -- -- 54
2020-03-27 10:00:00 9.3 16 Este 30 Este 0 -- -- 60
2020-03-27 09:00:00 6.7 13 Este 27 Este 0 -- -- 72
2020-03-27 08:00:00 3.4 16 Este 26 Este 0 -- -- 85
2020-03-27 07:00:00 3.6 18 Este 26 Este 0 -- -- 85
2020-03-27 06:00:00 4.1 13 Este 22 Este 0 -- -- 83
2020-03-27 05:00:00 4.1 6 Este 15 Sudeste 0 -- -- 82
2020-03-27 04:00:00 5.2 0 Calma 15 Este 0 -- -- 80
2020-03-27 03:00:00 5.2 5 Este 19 Nordeste 0 -- -- 79
2020-03-27 02:00:00 5.9 11 Este 26 Este 0 -- -- 75
2020-03-27 01:00:00 6.3 9 Este 22 Este 0 -- -- 73
2020-03-27 00:00:00 6.9 8 Este 26 Este 0 -- -- 68
2020-03-26 23:00:00 7.3 6 Este 26 Nordeste 0 -- -- 67
2020-03-26 22:00:00 8.2 5 Este 27 Nordeste 0 -- -- 66
2020-03-26 21:00:00 10.1 18 Nordeste 35 Nordeste 0 -- -- 60
2020-03-26 20:00:00 10.7 8 Norte 24 Norte 0 -- -- 58
2020-03-26 19:00:00 12.9 9 Nordeste 27 Norte 0 -- -- 51
2020-03-26 18:00:00 15.8 11 Norte 23 Norte 0 -- -- 45
2020-03-26 17:00:00 17.8 10 Nordeste 25 Nordeste 0 -- -- 38
2020-03-26 16:00:00 18.4 11 Nordeste 33 Este 0 -- -- 34
2020-03-26 15:00:00 17.9 14 Este 25 Nordeste 0 -- -- 31
2020-03-26 14:00:00 18 9 Este 24 Este 0 -- -- 32
2020-03-26 13:00:00 15.8 12 Este 21 Este 0 -- -- 42
2020-03-26 12:00:00 13 14 Este 26 Este 0 -- -- 55
2020-03-26 11:00:00 11.3 11 Este 26 Este 0 -- -- 62
2020-03-26 10:00:00 9.2 16 Este 33 Este 0 -- -- 74
2020-03-26 09:00:00 5.8 18 Este 25 Este 0 -- -- 93
2020-03-26 08:00:00 5.1 13 Este 23 Este 0 -- -- 93
2020-03-26 07:00:00 5.5 5 Este 18 Este 0 -- -- 92
2020-03-26 06:00:00 6.8 5 Este 23 Nordeste 0 -- -- 90
2020-03-26 05:00:00 8.1 0 Calma 10 Nordeste 0 -- -- 90
2020-03-26 04:00:00 7.9 0 Calma 6 Este 0 -- -- 90
2020-03-26 03:00:00 8.8 0 Calma 10 Sudeste 0 -- -- 89
2020-03-26 02:00:00 9.4 2 Este 12 Este 0 -- -- 90
2020-03-26 01:00:00 8.9 5 Este 13 Nordeste 0 -- -- 90
2020-03-26 00:00:00 8.4 7 Nordeste 14 Nordeste 0 -- -- 89
2020-03-25 23:00:00 9.6 3 Nordeste 12 Este 0 -- -- 84
2020-03-25 22:00:00 10.6 5 Este 10 Este 0 -- -- 75
2020-03-25 21:00:00 12.5 4 Este 12 Norte 0 -- -- 64
2020-03-25 20:00:00 13.5 2 Noroeste 13 Norte 0 -- -- 59
2020-03-25 19:00:00 16.9 0 Calma 16 Oeste 0 -- -- 58
2020-03-25 18:00:00 18.8 6 Oeste 17 Oeste 0 -- -- 53
2020-03-25 17:00:00 19.8 7 Oeste 21 Oeste 0 -- -- 53
2020-03-25 16:00:00 18.5 6 Oeste 15 Oeste 0 -- -- 54
2020-03-25 15:00:00 20.1 6 Oeste 17 Oeste 0 -- -- 50
2020-03-25 14:00:00 19.9 6 Oeste 14 Oeste 0 -- -- 49
2020-03-25 13:00:00 19.4 5 Oeste 10 Oeste 0 -- -- 50
2020-03-25 12:00:00 17.4 4 Oeste 7 Oeste 0 -- -- 56
2020-03-25 11:00:00 14.8 0 Calma 18 Nordeste 0 -- -- 66
2020-03-25 10:00:00 11.8 12 Este 17 Este 0 -- -- 77
2020-03-25 09:00:00 7.3 9 Este 19 Este 0 -- -- 94
2020-03-25 08:00:00 5.6 18 Nordeste 23 Este 0 -- -- 95
2020-03-25 07:00:00 6.1 19 Este 24 Nordeste 0 -- -- 94
2020-03-25 06:00:00 6.5 18 Nordeste 22 Este 0 -- -- 94
2020-03-25 05:00:00 6.4 15 Nordeste 20 Nordeste 0 -- -- 92
2020-03-25 04:00:00 7.5 15 Nordeste 19 Este 0 -- -- 91
2020-03-25 03:00:00 8.2 12 Nordeste 17 Nordeste 0 -- -- 89
2020-03-25 02:00:00 7.7 10 Nordeste 13 Este 0 -- -- 89
2020-03-25 01:00:00 9 8 Nordeste 10 Nordeste 0 -- -- 82
2020-03-25 00:00:00 9.9 3 Nordeste 9 Nordeste 0 -- -- 77
2020-03-24 23:00:00 10.8 4 Nordeste 7 Nordeste 0 -- -- 68
2020-03-24 22:00:00 12.5 0 Calma 6 Nordeste 0 -- -- 60
2020-03-24 21:00:00 13.9 0 Calma 7 Sudoeste 0 -- -- 55
2020-03-24 20:00:00 15.6 3 Sur 15 Nordeste 0 -- -- 53
2020-03-24 19:00:00 18 3 Noroeste 11 Noroeste 0 -- -- 45
2020-03-24 18:00:00 20.7 4 Oeste 13 Oeste 0 -- -- 38
2020-03-24 17:00:00 21.4 5 Nordeste 15 Este 0 -- -- 36
2020-03-24 16:00:00 20.1 6 Este 15 Este 0 -- -- 38
2020-03-24 15:00:00 21.8 4 Nordeste 26 Nordeste 0 -- -- 38
2020-03-24 14:00:00 20.8 4 Oeste 12 Este 0 -- -- 42
2020-03-24 13:00:00 19.6 3 Este 11 Este 0 -- -- 44
2020-03-24 12:00:00 18 6 Este 15 Este 0 -- -- 54
2020-03-24 11:00:00 16.2 9 Este 15 Este 0 -- -- 62
2020-03-24 10:00:00 13 8 Este 13 Este 0 -- -- 73
2020-03-24 09:00:00 10 4 Nordeste 11 Nordeste 0 -- -- 94
2020-03-24 08:00:00 6.6 4 Nordeste 15 Este 0 -- -- 94
2020-03-24 07:00:00 6.9 5 Este 19 Este 0 -- -- 94
2020-03-24 06:00:00 6.8 10 Nordeste 19 Este 0 -- -- 94
2020-03-24 05:00:00 7.2 6 Este 15 Nordeste 0 -- -- 91
2020-03-24 04:00:00 8 3 Nordeste 13 Sudeste 0 -- -- 89
2020-03-24 03:00:00 8.8 6 Este 17 Este 0 -- -- 86
2020-03-24 02:00:00 9.5 8 Este 20 Este 0 -- -- 83
2020-03-24 01:00:00 9.9 3 Este 23 Nordeste 0 -- -- 80
2020-03-24 00:00:00 10.7 14 Nordeste 31 Nordeste 0 -- -- 79
2020-03-23 23:00:00 10.4 15 Nordeste 32 Este 0 -- -- 79
2020-03-23 22:00:00 10.1 15 Nordeste 30 Nordeste 0 -- -- 80
2020-03-23 21:00:00 9.3 8 Este 23 Nordeste 0 -- -- 81
2020-03-23 20:00:00 10.4 10 Nordeste 24 Este 0 -- -- 75
2020-03-23 19:00:00 12.1 9 Este 21 Este 0 -- -- 69
2020-03-23 18:00:00 13.9 14 Nordeste 24 Nordeste 0 -- -- 64
2020-03-23 17:00:00 15.9 11 Nordeste 27 Este 0 -- -- 61
2020-03-23 16:00:00 17.8 12 Nordeste 23 Este 0 -- -- 57
2020-03-23 15:00:00 16.9 10 Este 25 Este 0 -- -- 56
2020-03-23 14:00:00 17.1 12 Nordeste 31 Nordeste 0 -- -- 58
2020-03-23 13:00:00 17.1 13 Este 33 Este 0 -- -- 56
2020-03-23 12:00:00 15.6 17 Este 33 Este 0 -- -- 62
2020-03-23 11:00:00 12.7 19 Este 30 Este 0 -- -- 74
2020-03-23 10:00:00 12.1 10 Este 23 Este 0 -- -- 81
2020-03-23 09:00:00 10.6 12 Este 23 Este 0 -- -- 86
2020-03-23 08:00:00 9.8 9 Este 23 Este 0 -- -- 89
2020-03-23 07:00:00 9.7 12 Este 24 Este 0 -- -- 89
2020-03-23 06:00:00 9.5 10 Este 25 Este 0 -- -- 90
2020-03-23 05:00:00 8.9 12 Este 26 Este 0 -- -- 90
2020-03-23 04:00:00 8.6 6 Este 17 Este 0 -- -- 89
2020-03-23 03:00:00 9 3 Nordeste 18 Este 0 -- -- 87
2020-03-23 02:00:00 9.4 7 Este 22 Este 0 -- -- 85
2020-03-23 01:00:00 10.1 8 Este 24 Este 0 -- -- 78
2020-03-23 00:00:00 10.3 8 Este 20 Sudeste 0 -- -- 78
2020-03-22 23:00:00 11 11 Este 29 Este 0 -- -- 75
2020-03-22 22:00:00 11.8 15 Este 26 Nordeste 0 -- -- 80
2020-03-22 21:00:00 11.9 6 Este 23 Este 0 -- -- 81
2020-03-22 20:00:00 12.4 7 Este 21 Este 0 -- -- 78
2020-03-22 19:00:00 13.8 16 Este 24 Este 0 -- -- 69
2020-03-22 18:00:00 16.6 9 Nordeste 19 Nordeste 0 -- -- 63
2020-03-22 17:00:00 17 9 Este 19 Este 0 -- -- 60
2020-03-22 16:00:00 17.1 8 Este 19 Este 0 -- -- 58
2020-03-22 15:00:00 17.2 9 Este 21 Este 0 -- -- 60
2020-03-22 14:00:00 16.2 12 Este 23 Este 0.1 -- -- 63
2020-03-22 13:00:00 14.5 10 Este 22 Este 0 -- -- 68
2020-03-22 12:00:00 14.2 12 Este 28 Este 0 -- -- 71
2020-03-22 11:00:00 12.1 13 Este 24 Este 0 -- -- 80
2020-03-22 10:00:00 10.8 12 Este 21 Este 0 -- -- 90
2020-03-22 09:00:00 10.2 9 Este 19 Nordeste 0 -- -- 92
2020-03-22 08:00:00 10 3 Este 14 Este 0 -- -- 93
2020-03-22 07:00:00 10 8 Este 16 Nordeste 0 -- -- 92
2020-03-22 06:00:00 10.1 5 Este 15 Nordeste 0 -- -- 93
2020-03-22 05:00:00 10.2 10 Nordeste 19 Este 0 -- -- 93
2020-03-22 04:00:00 10.3 2 Nordeste 8 Nordeste 0 -- -- 93
2020-03-22 03:00:00 10.4 4 Nordeste 8 Este 0 -- -- 93
2020-03-22 02:00:00 10.5 4 Este 13 Este 0 -- -- 93
2020-03-22 01:00:00 10.7 7 Este 17 Este 0 -- -- 93
2020-03-22 00:00:00 11.2 4 Este 6 Nordeste 0 -- -- 93
2020-03-21 23:00:00 11.3 0 Calma 7 Sudoeste 0.5 -- -- 93
2020-03-21 22:00:00 11.4 0 Calma 10 Este 1.1 -- -- 91
2020-03-21 21:00:00 11.6 5 Nordeste 8 Este 0.8 -- -- 90
2020-03-21 20:00:00 12 3 Oeste 8 Oeste 0 -- -- 88
2020-03-21 19:00:00 12.3 4 Oeste 15 Oeste 0 -- -- 85
2020-03-21 18:00:00 12.8 4 Oeste 15 Oeste 0 -- -- 83
2020-03-21 17:00:00 13.4 6 Oeste 17 Oeste 0 -- -- 77
2020-03-21 16:00:00 13.9 6 Oeste 16 Oeste 0 -- -- 75
2020-03-21 15:00:00 14.9 5 Oeste 13 Oeste 0 -- -- 77
2020-03-21 14:00:00 14 6 Oeste 15 Oeste 0 -- -- 79
2020-03-21 13:00:00 15.4 4 Oeste 12 Oeste 0 -- -- 77
2020-03-21 12:00:00 14.5 3 Oeste 8 Oeste 0 -- -- 76
2020-03-21 11:00:00 13.7 5 Este 14 Este 0 -- -- 88
2020-03-21 10:00:00 12.4 7 Este 22 Este 0 -- -- 95
2020-03-21 09:00:00 10.6 6 Nordeste 9 Este 0 -- -- 95
2020-03-21 08:00:00 10.3 6 Este 9 Nordeste 0 -- -- 95
2020-03-21 07:00:00 10.2 6 Nordeste 9 Este 0.1 -- -- 95
2020-03-21 06:00:00 10.3 0 Calma 9 Nordeste 0.9 -- -- 95
2020-03-21 05:00:00 10.1 4 Nordeste 11 Este 0 -- -- 95
2020-03-21 04:00:00 10.3 0 Calma 14 Este 0.3 -- -- 95
2020-03-21 03:00:00 10.4 9 Este 15 Este 0 -- -- 95
2020-03-21 02:00:00 10.4 3 Este 12 Este 0 -- -- 95
2020-03-21 01:00:00 10.5 4 Nordeste 9 Nordeste 0 -- -- 94
2020-03-21 00:00:00 11 4 Nordeste 9 Nordeste 0 -- -- 94
2020-03-20 23:00:00 11.3 5 Este 10 Este 0 -- -- 94
2020-03-20 22:00:00 11.5 6 Este 11 Este 0 -- -- 94
2020-03-20 21:00:00 11.9 5 Este 8 Este 0.1 -- -- 93
2020-03-20 20:00:00 12.1 5 Nordeste 8 Nordeste 0.2 -- -- 92
2020-03-20 19:00:00 12.5 0 Calma 2 Sudoeste 0.6 -- -- 91
2020-03-20 18:00:00 12.7 0 Calma 5 Oeste 0.4 -- -- 92
2020-03-20 17:00:00 13.3 0 Calma 8 Oeste 0.5 -- -- 92
2020-03-20 16:00:00 13 2 Oeste 13 Oeste 0.4 -- -- 91
2020-03-20 15:00:00 13.8 3 Oeste 7 Oeste 0.3 -- -- 91
2020-03-20 14:00:00 13.1 2 Oeste 6 Sudoeste 0 -- -- 91
2020-03-20 13:00:00 12.8 2 Oeste 11 Oeste 0 -- -- 92
2020-03-20 12:00:00 12.6 2 Oeste 5 Oeste 0 -- -- 94
2020-03-20 11:00:00 12.3 0 Calma 3 Sudoeste 0 -- -- 94
2020-03-20 10:00:00 12.1 0 Calma 0 Calma 0 -- -- 94
2020-03-20 09:00:00 11.4 0 Calma 2 Noroeste 0.1 -- -- 94
2020-03-20 08:00:00 11.2 0 Calma 5 Oeste 0.2 -- -- 94
2020-03-20 07:00:00 11.3 0 Calma 5 Oeste 0.4 -- -- 94
2020-03-20 06:00:00 11.4 0 Calma 5 Oeste 0 -- -- 94
2020-03-20 05:00:00 11.3 0 Calma 6 Oeste 0.1 -- -- 94
2020-03-20 04:00:00 11.2 0 Calma 8 Este 0 -- -- 94
2020-03-20 03:00:00 11 4 Este 13 Nordeste 0 -- -- 94
2020-03-20 02:00:00 11.2 7 Este 18 Este 0.3 -- -- 94
2020-03-20 01:00:00 11.3 3 Este 11 Este 1.5 -- -- 93
2020-03-20 00:00:00 11.7 2 Este 23 Este 0.1 -- -- 88
2020-03-19 23:00:00 11.6 9 Este 21 Sudeste 0 -- -- 86
2020-03-19 22:00:00 12 8 Este 14 Este 0 -- -- 84
2020-03-19 21:00:00 12.5 5 Este 12 Este 0 -- -- 80
2020-03-19 20:00:00 13.3 2 Oeste 12 Oeste 0 -- -- 74
2020-03-19 19:00:00 14.9 3 Oeste 10 Oeste 0 -- -- 69
2020-03-19 18:00:00 15.7 4 Oeste 15 Oeste 0 -- -- 66
2020-03-19 17:00:00 16.3 6 Oeste 16 Oeste 0 -- -- 61
2020-03-19 16:00:00 18.4 4 Oeste 17 Sudoeste 0 -- -- 54
2020-03-19 15:00:00 19 6 Oeste 19 Oeste 0 -- -- 53
2020-03-19 14:00:00 19.5 5 Oeste 17 Oeste 0 -- -- 52
2020-03-19 13:00:00 18.4 3 Oeste 11 Oeste 0 -- -- 57
2020-03-19 12:00:00 16.1 3 Oeste 7 Sudoeste 0 -- -- 66
2020-03-19 11:00:00 13.9 4 Nordeste 10 Este 0 -- -- 73
2020-03-19 10:00:00 11.1 10 Nordeste 18 Este 0 -- -- 87
2020-03-19 09:00:00 8.3 14 Este 19 Nordeste 0 -- -- 94
2020-03-19 08:00:00 7.3 15 Nordeste 20 Este 0 -- -- 93
2020-03-19 07:00:00 7.3 7 Este 19 Este 0 -- -- 92
2020-03-19 06:00:00 8.5 14 Nordeste 20 Nordeste 0 -- -- 91
2020-03-19 05:00:00 8.8 6 Nordeste 14 Este 0 -- -- 89
2020-03-19 04:00:00 9 11 Nordeste 15 Nordeste 0 -- -- 88
2020-03-19 03:00:00 9.7 8 Nordeste 14 Nordeste 0 -- -- 85
2020-03-19 02:00:00 10.3 10 Nordeste 16 Nordeste 0 -- -- 81
2020-03-19 01:00:00 10.9 7 Nordeste 15 Nordeste 0 -- -- 77
2020-03-19 00:00:00 11.9 0 Calma 8 Nordeste 0 -- -- 70
2020-03-18 23:00:00 12.9 0 Calma 10 Este 0 -- -- 66
2020-03-18 22:00:00 13.7 5 Este 21 Este 0 -- -- 64
2020-03-18 21:00:00 15.3 11 Nordeste 17 Norte 0 -- -- 58
2020-03-18 20:00:00 17.1 3 Este 19 Nordeste 0 -- -- 54
2020-03-18 19:00:00 19.8 6 Nordeste 13 Norte 0 -- -- 47
2020-03-18 18:00:00 22.6 5 Nordeste 12 Nordeste 0 -- -- 39
2020-03-18 17:00:00 23.1 5 Nordeste 18 Este 0 -- -- 37
2020-03-18 16:00:00 22.9 6 Este 14 Este 0 -- -- 36
2020-03-18 15:00:00 22.6 8 Este 21 Este 0 -- -- 36
2020-03-18 14:00:00 21.9 13 Este 21 Sudeste 0 -- -- 39
2020-03-18 13:00:00 19.9 11 Este 19 Este 0 -- -- 50
2020-03-18 12:00:00 17.6 15 Este 21 Este 0 -- -- 56
2020-03-18 11:00:00 14.3 17 Este 23 Este 0 -- -- 64
2020-03-18 10:00:00 10.6 12 Este 24 Este 0 -- -- 85
2020-03-18 09:00:00 6.6 16 Este 24 Nordeste 0 -- -- 96
2020-03-18 08:00:00 4.9 17 Este 22 Este 0 -- -- 96
2020-03-18 07:00:00 5 16 Este 22 Este 0 -- -- 96
2020-03-18 06:00:00 5.9 17 Este 24 Este 0 -- -- 95
2020-03-18 05:00:00 6.3 16 Este 20 Este 0 -- -- 94
2020-03-18 04:00:00 6.7 14 Este 20 Este 0 -- -- 93
2020-03-18 03:00:00 7.3 14 Este 21 Este 0 -- -- 92
2020-03-18 02:00:00 8.2 13 Este 21 Nordeste 0 -- -- 88
2020-03-18 01:00:00 9.2 9 Este 19 Este 0 -- -- 85
2020-03-18 00:00:00 10 8 Este 17 Nordeste 0 -- -- 81
2020-03-17 23:00:00 11.4 2 Norte 28 Este 0 -- -- 76
2020-03-17 22:00:00 12.1 15 Este 29 Este 0 -- -- 74
2020-03-17 21:00:00 13.9 22 Este 26 Este 0 -- -- 66
2020-03-17 20:00:00 14.6 12 Este 24 Este 0 -- -- 63
2020-03-17 19:00:00 17.4 10 Nordeste 24 Nordeste 0 -- -- 53
2020-03-17 18:00:00 19 12 Nordeste 24 Este 0 -- -- 49
2020-03-17 17:00:00 19.2 14 Este 27 Este 0 -- -- 47
2020-03-17 16:00:00 19.2 15 Este 29 Este 0 -- -- 46
2020-03-17 15:00:00 18.9 13 Este 27 Este 0 -- -- 47
2020-03-17 14:00:00 18.3 12 Este 26 Este 0 -- -- 48
2020-03-17 13:00:00 16.6 14 Este 26 Este 0 -- -- 50
2020-03-17 12:00:00 14.6 14 Este 31 Este 0 -- -- 53
2020-03-17 11:00:00 12.9 19 Este 35 Este 0 -- -- 57
2020-03-17 10:00:00 10.6 10 Este 27 Este 0 -- -- 65
2020-03-17 09:00:00 7.7 19 Este 31 Este 0 -- -- 75
2020-03-17 08:00:00 6.5 20 Este 37 Este 0 -- -- 75
2020-03-17 07:00:00 6.7 14 Este 34 Nordeste 0 -- -- 74
2020-03-17 06:00:00 6.8 20 Este 36 Nordeste 0 -- -- 75
2020-03-17 05:00:00 6.9 19 Este 34 Nordeste 0 -- -- 75
2020-03-17 04:00:00 6.8 9 Este 26 Este 0 -- -- 76
2020-03-17 03:00:00 6.8 14 Este 31 Este 0 -- -- 78
2020-03-17 02:00:00 7 15 Este 32 Este 0 -- -- 79
2020-03-17 01:00:00 7 14 Este 31 Este 0 -- -- 78
2020-03-17 00:00:00 6.6 9 Este 27 Este 0 -- -- 78
2020-03-16 23:00:00 6.8 6 Nordeste 26 Nordeste 0 -- -- 77
2020-03-16 22:00:00 7.1 9 Nordeste 26 Nordeste 0 -- -- 75
2020-03-16 21:00:00 7.7 13 Nordeste 29 Nordeste 0 -- -- 73
2020-03-16 20:00:00 7.9 11 Nordeste 31 Nordeste 0 -- -- 69
2020-03-16 19:00:00 9.3 12 Nordeste 30 Nordeste 0 -- -- 63
2020-03-16 18:00:00 10.3 13 Nordeste 39 Nordeste 0 -- -- 61
2020-03-16 17:00:00 11.5 17 Nordeste 37 Nordeste 0.1 -- -- 55
2020-03-16 16:00:00 12.5 20 Nordeste 40 Nordeste 0 -- -- 55
2020-03-16 15:00:00 12.9 14 Nordeste 36 Nordeste 0 -- -- 57
2020-03-16 14:00:00 12.4 15 Este 32 Este 0 -- -- 58
2020-03-16 13:00:00 10.8 21 Este 45 Este 0.1 -- -- 72
2020-03-16 12:00:00 9 14 Nordeste 33 Nordeste 0.6 -- -- 79
2020-03-16 11:00:00 10.5 11 Este 26 Este 0.2 -- -- 83
2020-03-16 10:00:00 6.3 0 Calma 8 Este 0.1 -- -- 97
2020-03-16 09:00:00 4.9 3 Nordeste 10 Nordeste 0.1 -- -- 97
2020-03-16 08:00:00 2.4 5 Este 11 Nordeste 0 -- -- 97
2020-03-16 07:00:00 2.4 6 Nordeste 15 Nordeste 0.1 -- -- 97
2020-03-16 06:00:00 2.5 9 Nordeste 18 Nordeste 0 -- -- 97
2020-03-16 05:00:00 2.3 10 Nordeste 13 Nordeste 0 -- -- 97
2020-03-16 04:00:00 2.7 8 Nordeste 13 Este 0 -- -- 97
2020-03-16 03:00:00 2.7 4 Nordeste 11 Norte 0 -- -- 96
2020-03-16 02:00:00 3.7 0 Calma 11 Este 0 -- -- 96
2020-03-16 01:00:00 3.4 0 Calma 10 Nordeste 0.2 -- -- 96
2020-03-16 00:00:00 3.5 2 Este 9 Nordeste 0 -- -- 95
2020-03-15 23:00:00 4.1 0 Calma 9 Este 0 -- -- 95
2020-03-15 22:00:00 4.2 9 Nordeste 14 Este 0 -- -- 94
2020-03-15 21:00:00 5.1 0 Calma 8 Nordeste 0 -- -- 92
2020-03-15 20:00:00 5.7 6 Nordeste 17 Norte 0.4 -- -- 90
2020-03-15 19:00:00 6.4 9 Nordeste 16 Este 0.6 -- -- 88
2020-03-15 18:00:00 8.1 6 Nordeste 10 Nordeste 0.1 -- -- 86
2020-03-15 17:00:00 7.7 0 Calma 12 Este 1.8 -- -- 83
2020-03-15 16:00:00 7.8 3 Sudeste 9 Sudeste 0.9 -- -- 87
2020-03-15 15:00:00 8.6 0 Calma 7 Sur 0.3 -- -- 90
2020-03-15 14:00:00 8.3 0 Calma 11 Norte 1.3 -- -- 88
2020-03-15 13:00:00 7.9 2 Norte 30 Norte 1.9 -- -- 89
2020-03-15 12:00:00 8.5 5 Norte 25 Norte 5.2 -- -- 89
2020-03-15 11:00:00 11 4 Oeste 13 Oeste 0 -- -- 84
2020-03-15 10:00:00 8.9 0 Calma 13 Este 0 -- -- 93
2020-03-15 09:00:00 6.3 8 Nordeste 12 Nordeste 0 -- -- 96
2020-03-15 08:00:00 5.8 8 Nordeste 13 Nordeste 0 -- -- 96
2020-03-15 07:00:00 5.9 7 Este 18 Este 0 -- -- 96
2020-03-15 06:00:00 5.7 14 Este 19 Este 0 -- -- 97
2020-03-15 05:00:00 5.9 0 Calma 9 Este 0 -- -- 95
2020-03-15 04:00:00 5.9 2 Nordeste 12 Este 0 -- -- 95
2020-03-15 03:00:00 6.2 6 Este 17 Este 0 -- -- 94
2020-03-15 02:00:00 5.6 12 Este 17 Este 0 -- -- 94
2020-03-15 01:00:00 6.6 7 Nordeste 16 Nordeste 0 -- -- 92
2020-03-15 00:00:00 7.5 3 Nordeste 13 Nordeste 0 -- -- 89
2020-03-14 23:00:00 8.2 4 Este 10 Este 0 -- -- 85
2020-03-14 22:00:00 9.3 2 Este 15 Este 0 -- -- 79
2020-03-14 21:00:00 10.7 8 Este 14 Nordeste 0 -- -- 72
2020-03-14 20:00:00 13.2 2 Sudeste 12 Norte 0 -- -- 61
2020-03-14 19:00:00 16.7 5 Nordeste 10 Nordeste 0 -- -- 44
2020-03-14 18:00:00 18.6 4 Nordeste 13 Este 0 -- -- 42
2020-03-14 17:00:00 18.5 6 Este 17 Este 0 -- -- 42
2020-03-14 16:00:00 18.1 12 Este 20 Sudeste 0 -- -- 43
2020-03-14 15:00:00 17.3 11 Sudeste 25 Este 0 -- -- 48
2020-03-14 14:00:00 15.3 17 Este 28 Este 0 -- -- 50
2020-03-14 13:00:00 14.1 18 Este 34 Este 0 -- -- 55
2020-03-14 12:00:00 12.4 19 Este 31 Este 0 -- -- 60
2020-03-14 11:00:00 10 22 Este 32 Este 0 -- -- 68
2020-03-14 10:00:00 7.8 17 Este 26 Este 0 -- -- 79
2020-03-14 09:00:00 4.6 11 Este 22 Este 0 -- -- 95
2020-03-14 08:00:00 2.8 13 Este 26 Este 0 -- -- 94
2020-03-14 07:00:00 3.3 18 Este 29 Este 0 -- -- 94
2020-03-14 06:00:00 4.1 12 Este 22 Este 0 -- -- 94
2020-03-14 05:00:00 4.3 10 Este 18 Este 0 -- -- 94
2020-03-14 04:00:00 4.7 9 Nordeste 15 Nordeste 0 -- -- 93
2020-03-14 03:00:00 5.6 10 Este 17 Este 0 -- -- 92
2020-03-14 02:00:00 6.5 8 Este 19 Este 0 -- -- 89
2020-03-14 01:00:00 6.9 5 Este 18 Este 0 -- -- 89
2020-03-14 00:00:00 7.2 5 Este 19 Este 0 -- -- 87
2020-03-13 23:00:00 7.7 2 Este 18 Este 0 -- -- 85
2020-03-13 22:00:00 8.1 5 Este 24 Sudeste 0 -- -- 81
2020-03-13 21:00:00 9 6 Este 28 Nordeste 0 -- -- 77
2020-03-13 20:00:00 10.1 10 Nordeste 25 Norte 0 -- -- 72
2020-03-13 19:00:00 12 13 Nordeste 26 Este 0 -- -- 64
2020-03-13 18:00:00 13.9 13 Este 30 Este 0 -- -- 57
2020-03-13 17:00:00 14.2 16 Este 33 Este 0 -- -- 55
2020-03-13 16:00:00 15.5 15 Nordeste 33 Este 0 -- -- 56
2020-03-13 15:00:00 15.2 14 Nordeste 28 Nordeste 0 -- -- 58
2020-03-13 14:00:00 14.2 14 Nordeste 32 Este 0 -- -- 60
2020-03-13 13:00:00 13.3 16 Este 38 Este 0 -- -- 61
2020-03-13 12:00:00 11.4 15 Este 31 Este 0 -- -- 68
2020-03-13 11:00:00 10.6 15 Este 35 Este 0 -- -- 69
2020-03-13 10:00:00 10 11 Este 32 Nordeste 0 -- -- 72
2020-03-13 09:00:00 9 12 Nordeste 38 Nordeste 0 -- -- 73
2020-03-13 08:00:00 8.8 21 Nordeste 47 Nordeste 0 -- -- 72
2020-03-13 07:00:00 8.6 12 Este 34 Este 0 -- -- 72
2020-03-13 06:00:00 8.8 20 Nordeste 46 Este 0 -- -- 72
2020-03-13 05:00:00 8.6 13 Este 43 Este 0 -- -- 72
2020-03-13 04:00:00 8.7 23 Nordeste 48 Nordeste 0 -- -- 72
2020-03-13 03:00:00 8.1 19 Nordeste 35 Nordeste 0 -- -- 75
2020-03-13 02:00:00 7.2 14 Este 34 Este 0 -- -- 78
2020-03-13 01:00:00 7.4 13 Este 29 Nordeste 0 -- -- 77
2020-03-13 00:00:00 8 16 Este 37 Este 0 -- -- 73
2020-03-12 23:00:00 8.4 13 Este 40 Nordeste 0 -- -- 72
2020-03-12 22:00:00 9.2 17 Este 38 Este 0 -- -- 70
2020-03-12 21:00:00 9.6 18 Nordeste 30 Este 0 -- -- 72
2020-03-12 20:00:00 9.9 11 Este 31 Este 0 -- -- 69
2020-03-12 19:00:00 10.7 14 Este 35 Este 0 -- -- 64
2020-03-12 18:00:00 11.3 12 Este 28 Este 0 -- -- 67
2020-03-12 17:00:00 12 8 Nordeste 33 Nordeste 0 -- -- 65
2020-03-12 16:00:00 14.2 17 Nordeste 42 Nordeste 0 -- -- 63
2020-03-12 15:00:00 14.5 14 Nordeste 32 Nordeste 0 -- -- 63
2020-03-12 14:00:00 14.8 11 Nordeste 32 Este 0 -- -- 64
2020-03-12 13:00:00 15.6 18 Este 31 Este 0 -- -- 60
2020-03-12 12:00:00 13.7 12 Este 31 Este 0 -- -- 69
2020-03-12 11:00:00 13.4 10 Este 24 Este 0 -- -- 72
2020-03-12 10:00:00 11 6 Nordeste 14 Nordeste 0 -- -- 94
2020-03-12 09:00:00 8.8 9 Nordeste 15 Nordeste 0 -- -- 95
2020-03-12 08:00:00 7.1 8 Nordeste 12 Nordeste 0 -- -- 94
2020-03-12 07:00:00 7.8 7 Este 13 Este 0 -- -- 93
2020-03-12 06:00:00 8.4 10 Este 16 Este 0 -- -- 93
2020-03-12 05:00:00 8.4 10 Este 14 Este 0 -- -- 93
2020-03-12 04:00:00 8.1 5 Este 10 Nordeste 0 -- -- 92
2020-03-12 03:00:00 8.6 4 Nordeste 9 Nordeste 0 -- -- 91
2020-03-12 02:00:00 9.7 4 Nordeste 6 Este 0 -- -- 89
2020-03-12 01:00:00 11 0 Calma 7 Nordeste 0 -- -- 85
2020-03-12 00:00:00 12.1 3 Nordeste 5 Nordeste 0 -- -- 83
2020-03-11 23:00:00 12.7 2 Este 8 Nordeste 0 -- -- 83
2020-03-11 22:00:00 13 2 Nordeste 13 Norte 0 -- -- 82
2020-03-11 21:00:00 13.1 0 Calma 11 Noroeste 0 -- -- 82
2020-03-11 20:00:00 13.5 0 Calma 17 Norte 0 -- -- 81
2020-03-11 19:00:00 14.5 5 Noroeste 17 Noroeste 0 -- -- 75
2020-03-11 18:00:00 16.8 3 Noroeste 12 Norte 0 -- -- 66
2020-03-11 17:00:00 17.3 3 Noroeste 11 Norte 0 -- -- 65
2020-03-11 16:00:00 18.4 4 Noroeste 14 Oeste 0 -- -- 61
2020-03-11 15:00:00 18.5 4 Oeste 11 Oeste 0 -- -- 61
2020-03-11 14:00:00 16.4 2 Oeste 13 Este 0 -- -- 70
2020-03-11 13:00:00 13.2 8 Este 13 Este 0 -- -- 83
2020-03-11 12:00:00 11.9 7 Este 13 Este 0 -- -- 88
2020-03-11 11:00:00 11.1 6 Este 14 Este 0 -- -- 93
2020-03-11 10:00:00 10.5 6 Este 13 Este 0 -- -- 95
2020-03-11 09:00:00 9.7 6 Este 13 Este 0 -- -- 94
2020-03-11 08:00:00 9.7 5 Este 12 Este 0 -- -- 94
2020-03-11 07:00:00 9.8 7 Este 13 Este 0 -- -- 94
2020-03-11 06:00:00 9.8 6 Este 13 Este 0 -- -- 94
2020-03-11 05:00:00 10 9 Nordeste 12 Nordeste 0 -- -- 93
2020-03-11 04:00:00 10.2 6 Este 9 Este 0 -- -- 92
2020-03-11 03:00:00 10.5 5 Nordeste 8 Nordeste 0 -- -- 92
2020-03-11 02:00:00 10.5 5 Nordeste 7 Este 0 -- -- 92
2020-03-11 01:00:00 10.8 3 Este 5 Nordeste 0 -- -- 91
2020-03-11 00:00:00 11.1 0 Calma 5 Nordeste 0 -- -- 91
2020-03-10 23:00:00 10.9 3 Nordeste 5 Este 0 -- -- 91
2020-03-10 22:00:00 11 0 Calma 4 Oeste 0 -- -- 91
2020-03-10 21:00:00 10.6 0 Calma 11 Noroeste 0 -- -- 89
2020-03-10 20:00:00 11.6 4 Oeste 12 Noroeste 0 -- -- 85
2020-03-10 19:00:00 13 7 Oeste 17 Sudoeste 0 -- -- 77
2020-03-10 18:00:00 14.4 5 Oeste 17 Oeste 0 -- -- 74
2020-03-10 17:00:00 14.4 5 Oeste 15 Oeste 0 -- -- 73
2020-03-10 16:00:00 14.2 6 Oeste 17 Oeste 0 -- -- 73
2020-03-10 15:00:00 14 6 Noroeste 17 Oeste 0 -- -- 71
2020-03-10 14:00:00 14.3 6 Oeste 18 Oeste 0 -- -- 74
2020-03-10 13:00:00 13.2 7 Oeste 18 Oeste 0 -- -- 78
2020-03-10 12:00:00 12.1 6 Oeste 19 Oeste 0 -- -- 84
2020-03-10 11:00:00 11 3 Oeste 12 Oeste 0 -- -- 89
2020-03-10 10:00:00 9 3 Oeste 14 Nordeste 0 -- -- 94
2020-03-10 09:00:00 6.8 8 Nordeste 13 Nordeste 0 -- -- 94
2020-03-10 08:00:00 6.5 9 Nordeste 13 Nordeste 0 -- -- 94
2020-03-10 07:00:00 6.4 6 Nordeste 13 Nordeste 0 -- -- 94
2020-03-10 06:00:00 6.4 7 Nordeste 10 Nordeste 0 -- -- 94
2020-03-10 05:00:00 6.2 8 Nordeste 10 Nordeste 0 -- -- 94
2020-03-10 04:00:00 6.8 5 Nordeste 11 Nordeste 0 -- -- 94
2020-03-10 03:00:00 6.7 3 Nordeste 9 Nordeste 0 -- -- 94
2020-03-10 02:00:00 6.5 7 Nordeste 9 Nordeste 0 -- -- 93
2020-03-10 01:00:00 7.2 2 Nordeste 6 Oeste 0 -- -- 91
2020-03-10 00:00:00 7.6 2 Noroeste 5 Este 0 -- -- 90
2020-03-09 23:00:00 8.3 0 Calma 7 Oeste 0 -- -- 88
2020-03-09 22:00:00 9.4 0 Calma 3 Sudoeste 0 -- -- 85
2020-03-09 21:00:00 9.3 0 Calma 5 Oeste 0 -- -- 86
2020-03-09 20:00:00 10.4 0 Calma 8 Noroeste 0 -- -- 80
2020-03-09 19:00:00 12.6 3 Oeste 16 Oeste 0 -- -- 70
2020-03-09 18:00:00 14.4 3 Oeste 14 Oeste 0 -- -- 60
2020-03-09 17:00:00 14.9 6 Oeste 15 Oeste 0 -- -- 57
2020-03-09 16:00:00 15.8 4 Oeste 13 Oeste 0 -- -- 54
2020-03-09 15:00:00 15.3 6 Sudoeste 15 Sudoeste 0 -- -- 59
2020-03-09 14:00:00 15.1 6 Sudoeste 13 Sudoeste 0 -- -- 57
2020-03-09 13:00:00 14.1 5 Oeste 8 Oeste 0 -- -- 68
2020-03-09 12:00:00 10.9 5 Este 14 Este 0 -- -- 86
2020-03-09 11:00:00 7.2 9 Nordeste 15 Este 0 -- -- 96
2020-03-09 10:00:00 5.8 8 Este 18 Nordeste 0 -- -- 96
2020-03-09 09:00:00 4.4 12 Nordeste 16 Nordeste 0 -- -- 96
2020-03-09 08:00:00 4 10 Este 16 Este 0 -- -- 96
2020-03-09 07:00:00 4 12 Nordeste 16 Nordeste 0 -- -- 95
2020-03-09 06:00:00 3.9 6 Nordeste 8 Nordeste 0 -- -- 94
2020-03-09 05:00:00 4.9 4 Nordeste 6 Nordeste 0 -- -- 94
2020-03-09 04:00:00 5.6 5 Nordeste 8 Nordeste 0 -- -- 94
2020-03-09 03:00:00 6.1 4 Este 8 Nordeste 0 -- -- 93
2020-03-09 02:00:00 6.6 6 Nordeste 8 Nordeste 0 -- -- 92
2020-03-09 01:00:00 7.4 5 Nordeste 6 Este 0 -- -- 90
2020-03-09 00:00:00 8.6 0 Calma 3 Norte 0 -- -- 90